Albertson, NC

6:09 PM EDT on March 27, 2015 (GMT -0400)
Scotts Store | | Change Station
CLOSE
Current Station
Personal Weather Station
Location: Mount Olive, NC
Elevation: 144 ft
Nearby Weather Stations
Active Advisory: Freeze Watch

Elev 144 ft 35.11 °N, 77.89 °W | Updated 31 seconds ago

Rain
Rain
45.3 °F
Feels Like 42 °F
N
6.7
Wind Variable Wind from NNE
Gusts 7.4 mph

Today
High -- | Low -- °F
--% Chance of Precip.
Yesterday
High -- | Low -- °F
Precip. -- in
7:05 AM 7:28 PM
First Quarter, 56% visible
Pressure 29.74 in
Visibility 10.0 miles
Clouds Scattered Clouds 1200 ft
Mostly Cloudy 1800 ft
Overcast 3800 ft
Windchill 42 °F
Dew Point 45 °F
Humidity 97%
Rainfall 0.60 in
Snow Depth Not available.
UV 0.0 out of 12
Pollen 4.50 out of 12
Air Quality Not available.
Flu Activity Not available.
METAR KDPL 272135Z AUTO 03009G15KT 10SM -RA SCT012 BKN018 OVC038 07/06 A2974 RMK AO2 P0003 T00720063

More Conditions Fewer Conditions

Pressure 29.74 in
Visibility 10.0 miles
Clouds Scattered Clouds 1200 ft
Mostly Cloudy 1800 ft
Overcast 3800 ft
Windchill 42 °F
Dew Point 45 °F
Humidity 97%
Rainfall 0.60 in
Snow Depth Not available.
UV 0.0 out of 12
Pollen 4.50 out of 12
Air Quality Not available.
Flu Activity Not available.
METAR KDPL 272135Z AUTO 03009G15KT 10SM -RA SCT012 BKN018 OVC038 07/06 A2974 RMK AO2 P0003 T00720063

More Conditions Fewer Conditions

10-Day Weather Forecast

Almanac

Astronomy

Mar. 27, 2015 Rise Set
Actual Time
Civil Twilight
Nautical Twilight
Astronomical Twilight
Moon
Length of Visible Light
Length of Day
Tomorrow will be .
, % of the Moon is Illuminated

Today's Extremes

State Highs State Lows

Community

WunderPhotos

Upload Photos

1,808,843 photos uploaded!

WunderBlogs® & News

Nearby

Air Quality

  Air Quality AQ Index Pollutant
Not available.

Snow Depth

Station Depth Elevation

Earthquake Activity

City Distance Mag. Time & Date
Minimum magnitude displayed is 2.5.

Coastal Water Temperatures

Place Temperature

Stations

Nearby Weather Stations

Station Location Temp. Windchill Dew Point Humidity Wind Precip. Elev Updated Type
                   
Freeze Watch
Statement as of 3:15 PM EDT on March 27, 2015

... Freeze watch remains in effect from late Saturday night
through Sunday morning...

* temperatures... in the mid to upper 20s most location and around
freezing close to the coast.

* Timing... Saturday night into early Sunday morning.

* Impacts... cold temperatures will damage or kill sensitive
plants.

Precautionary/preparedness actions...

A freeze watch means sub-freezing temperatures are possible.
These conditions could kill crops and other sensitive vegetation.